This is the latest recevied weather packets stored in our database for station/object KE7TOP-15. If no packets are shown the sender has not sent any weather packets the latest 10 day(s).
| Time | Temp. | Humidity | Pressure | Rain* | Wind** | Luminosity | Snow |
|---|---|---|---|---|---|---|---|
| 1777836617 | 20.56° C | 27% | 1013.3 hPa | 0 mm | - | 329 W/m² | - |
| 1777835423 | 20.56° C | 29% | 1013.5 hPa | 0 mm | - | 797 W/m² | - |
| 1777831243 | 17.78° C | 36% | 1014.2 hPa | 0 mm | - | 478 W/m² | - |
| 1777827021 | 14.44° C | 58% | 1014.5 hPa | 0 mm | - | 330 W/m² | - |
| 1777820420 | 8.89° C | 84% | 1015.1 hPa | 0 mm | - | 166 W/m² | - |
| 1777819820 | 8.89° C | 86% | 1015.2 hPa | 0 mm | - | 102 W/m² | - |
| 1777818016 | 8.33° C | 87% | 1015.1 hPa | 0 mm | - | 65 W/m² | - |
| 1777814419 | 6.67° C | 92% | 1015 hPa | 0 mm | - | 9 W/m² | - |
| 1777810820 | 7.22° C | 87% | 1014.6 hPa | 0 mm | - | 0 W/m² | - |
| 1777809038 | 8.33° C | 85% | 1015 hPa | 0 mm | - | 0 W/m² | - |
| 1777799416 | 10° C | 82% | 1016.3 hPa | 0 mm | - | 0 W/m² | - |
| 1777792820 | 8.89° C | 86% | 1017 hPa | 0 mm | - | 0 W/m² | - |
| 1777787420 | 9.44° C | 80% | 1017.2 hPa | 0 mm | - | 0 W/m² | - |
| 1777785016 | 10° C | 82% | 1017.7 hPa | 0 mm | - | 0 W/m² | - |
| 1777777844 | 10.56° C | 80% | 1015.9 hPa | 0.25 mm | - | 0 W/m² | - |
| 1777775420 | 11.11° C | 78% | 1016.9 hPa | 0 mm | - | 1 W/m² | - |
| 1777774819 | 10.56° C | 80% | 1016.9 hPa | 0.25 mm | - | 5 W/m² | - |
| 1777773615 | 10.56° C | 82% | 1016.3 hPa | 1.02 mm | - | 49 W/m² | - |
| 1777770617 | 11.11° C | 75% | 1017.3 hPa | 1.27 mm | - | 4 W/m² | - |
| 1777768243 | 15.56° C | 55% | 1016 hPa | 0.51 mm | - | 19 W/m² | - |
| 1777761023 | 16.67° C | 36% | 1016 hPa | 0 mm | - | 21 W/m² | - |
| 1777758019 | 18.89° C | 29% | 1016 hPa | 0 mm | - | 89 W/m² | - |
| 1777756216 | 18.89° C | 29% | 1016.4 hPa | 0 mm | - | 210 W/m² | - |
| 1777755015 | 18.33° C | 29% | 1016.7 hPa | 0 mm | - | 118 W/m² | - |
| 1777751421 | 19.44° C | 25% | 1016.7 hPa | 0 mm | - | 205 W/m² | - |
* Rain latest hour (hover to see other rain measurements)
** Current wind speed in m/s (hover to see current wind gust speed)